Hébergeur de fichiers indépendant

activity 87047401.gpx

À propos

Type de fichier
Fichier GPX de 929 Ko (application/xml)
Confidentialité
Fichier public, envoyé le 20 juillet 2017 à 21:39, depuis l'adresse IP 79.91.x.x (France)
Sécurité
Ne contient aucun Virus ou Malware connus - Dernière vérification: 02/06/19
Statistiques
La présente page de téléchargement a été vue 319 fois depuis l'envoi du fichier
Page de téléchargement

Aperçu du fichier


<?xml version="1.0" encoding="UTF-8"?>
<gpx creator="Garmin Connect" version="1.1"
  xsi:schemaLocation="http://www.topografix.com/GPX/1/1 http://www.topografix.com/GPX/11.xsd"
  xmlns="http://www.topografix.com/GPX/1/1"
  xmlns:ns3="http://www.garmin.com/xmlschemas/TrackPointExtension/v1"
  xmlns:ns2="http://www.garmin.com/xmlschemas/GpxExtensions/v3" xmlns:xsi="http://www.w3.org/2001/XMLSchema-instance">
  <metadata>
    <link href="connect.garmin.com">
      <text>Garmin Connect</text>
    </link>
    <time>2011-05-07T11:15:02.000Z</time>
  </metadata>
  <trk>
    <name>Les Carroz</name>
    <type>cycling</type>
    <trkseg>
      <trkpt lat="46.08577388338744640350341796875" lon="6.51173955760896205902099609375">
        <ele>474.600006103515625</ele>
        <time>2011-05-07T11:15:02.000Z</time>
        <extensions>
          <ns3:TrackPointExtension>
            <ns3:hr>97</ns3:hr>
          </ns3:TrackPointExtension>
        </extensions>
      </trkpt>
      <trkpt lat="46.08578695915639400482177734375" lon="6.51173888705670833587646484375">
        <ele>472.20001220703125</ele>
        <time>2011-05-07T11:15:03.000Z</time>
        <extensions>
          <ns3:TrackPointExtension>
            <ns3:hr>97</ns3:hr>
          </ns3:TrackPointExtension>
        </extensions>
      </trkpt>
      <trkpt lat="46.08579886145889759063720703125" lon="6.511737294495105743408203125">
        <ele>472.20001220703125</ele>
        <time>2011-05-07T11:15:04.000Z</time>
        <extensions>
          <ns3:TrackPointExtension>
            <ns3:hr>97</ns3:hr>
          </ns3:TrackPointExtension>
        </extensions>
      </trkpt>
      <trkpt lat="46.08582995831966400146484375" lon="6.511738635599613189697265625">
        <ele>474.600006103515625</ele>
        <time>2011-05-07T11:15:06.000Z</time>
        <extensions>
          <ns3:TrackPointExtension>
            <ns3:hr>97</ns3:hr>
          </ns3:TrackPointExtension>
        </extensions>
      </trkpt>
      <trkpt lat="46.085848398506641387939453125" lon="6.51174056343734264373779296875">
        <ele>474</ele>
        <time>2011-05-07T11:15:07.000Z</time>
        <extensions>
          <ns3:TrackPointExtension>
            <ns3:hr>98</ns3:hr>
          </ns3:TrackPointExtension>
        </extensions>
      </trkpt>
      <trkpt lat="46.08595996163785457611083984375" lon="6.51167585514485836029052734375">
        <ele>474</ele>
        <time>2011-05-07T11:15:13.000Z</time>
        <extensions>
          <ns3:TrackPointExtension>
            <ns3:hr>100</ns3:hr>
          </ns3:TrackPointExtension>
        </extensions>
      </trkpt>
      <trkpt lat="46.0860812477767467498779296875" lon="6.5115644596517086029052734375">
        <ele>474</ele>
        <time>2011-05-07T11:15:19.000Z</time>
        <extensions>
          <ns3:TrackPointExtension>
            <ns3:hr>101</ns3:hr>
          </ns3:TrackPointExtension>
        </extensions>
      </trkpt>
      <trkpt lat="46.086197085678577423095703125" lon="6.511610560119152069091796875">
        <ele>473.600006103515625</ele>
        <time>2011-05-07T11:15:24.000Z</time>
        <extensions>
          <ns3:TrackPointExtension>
            <ns3:hr>102</ns3:hr>
          </ns3:TrackPointExtension>
        </extensions>
      </trkpt>
      <trkpt lat="46.0862190462648868560791015625" lon="6.51163126341998577117919921875">
        <ele>474</ele>
        <time>2011-05-07T11:15:25.000Z</time>
        <extensions>
          <ns3:TrackPointExtension>
            <ns3:hr>102</ns3:hr>
          </ns3:TrackPointExtension>
        </extensions>
      </trkpt>
      <trkpt lat="46.08620605431497097015380859375" lon="6.51175615377724170684814453125">
        <ele>474.600006103515625</ele>
        <time>2011-05-07T11:15:29.000Z</time>
        <extensions>
          <ns3:TrackPointExtension>
            <ns3:hr>103</ns3:hr>
          </ns3:TrackPointExtension>
        </extensions>
      </trkpt>
      <trkpt lat="46.086003966629505157470703125" lon="6.5121052600443363189697265625">
        <ele>474</ele>
        <time>2011-05-07T11:15:39.000Z</time>
        <extensions>
          <ns3:TrackPointExtension>
            <ns3:hr>103</ns3:hr>
          </ns3:TrackPointExtension>
        </extensions>
      </trkpt>
      <trkpt lat="46.0857781581580638885498046875" lon="6.512373983860015869140625">
        <ele>474</ele>
        <time>2011-05-07T11:15:47.000Z</time>
        <extensions>
          <ns3:TrackPointExtension>
            <ns3:hr>104</ns3:hr>
          </ns3:TrackPointExtension>
        </extensions>
      </trkpt>
      <trkpt lat="46.085487641394138336181640625" lon="6.51255729608237743377685546875">
        <ele>474.600006103515625</ele>
        <time>2011-05-07T11:15:55.000Z</time>
        <extensions>
          <ns3:TrackPointExtension>
            <ns3:hr>104</ns3:hr>
          </ns3:TrackPointExtension>
        </extensions>
      </trkpt>
      <trkpt lat="46.085214056074619293212890625" lon="6.5127647481858730316162109375">
        <ele>474.600006103515625</ele>
        <time>2011-05-07T11:16:03.000Z</time>
        <extensions>
          <ns3:TrackPointExtension>
            <ns3:hr>104</ns3:hr>
          </ns3:TrackPointExtension>
        </extensions>
      </trkpt>
      <trkpt lat="46.0849731601774692535400390625" lon="6.51305987499654293060302734375">
        <ele>474.600006103515625</ele>
        <time>2011-05-07T11:16:11.000Z</time>
        <extensions>
          <ns3:TrackPointExtension>
            <ns3:hr>102</ns3:hr>
          </ns3:TrackPointExtension>
        </extensions>
      </trkpt>
      <trkpt lat="46.084774844348430633544921875" lon="6.51342147029936313629150390625">
        <ele>474.600006103515625</ele>
        <time>2011-05-07T11:16:19.000Z</time>
        <extensions>
          <ns3:TrackPointExtension>
            <ns3:hr>104</ns3:hr>
          </ns3:TrackPointExtension>
        </extensions>
      </trkpt>
      <trkpt lat="46.0846633650362491607666015625" lon="6.51380938477814197540283203125">
        <ele>474.600006103515625</ele>
        <time>2011-05-07T11:16:26.000Z</time>
        <extensions>
          <ns3:TrackPointExtension>
            <ns3:hr>102</ns3:hr>
          </ns3:TrackPointExtension>
        </extensions>
      </trkpt>
      <trkpt lat="46.08459136448800563812255859375" lon="6.51404474861919879913330078125">
        <ele>473.600006103515625</ele>
        <time>2011-05-07T11:16:30.000Z</time>
        <extensions>
          <ns3:TrackPointExtension>
            <ns3:hr>100</ns3:hr>
          </ns3:TrackPointExtension>
        </extensions>
      </trkpt>
      <trkpt lat="46.08447385020554065704345703125" lon="6.51431799866259098052978515625">
        <ele>474.600006103515625</ele>
        <time>2011-05-07T11:16:35.000Z</time>
        <extensions>
          <ns3:TrackPointExtension>
            <ns3:hr>95</ns3:hr>
          </ns3:TrackPointExtension>
        </extensions>
      </trkpt>
      <trkpt lat="46.0843984968960285186767578125" lon="6.51446686126291751861572265625">
        <ele>474</ele>
        <time>2011-05-07T11:16:38.000Z</time>
        <extensions>
          <ns3:TrackPointExtension>
            <ns3:hr>96</ns3:hr>
          </ns3:TrackPointExtension>
        </extensions>
      </trkpt>
      <trkpt lat="46.08422423712909221649169921875" lon="6.5147636644542217254638671875">
        <ele>474</ele>
        <time>2011-05-07T11:16:44.000Z</time>
        <extensions>
          <ns3:TrackPointExtension>
            <ns3:hr>98</ns3:hr>
          </ns3:TrackPointExtension>
        </extensions>
      </trkpt>
      <trkpt lat="46.08395517803728580474853515625" lon="6.5151460468769073486328125">
        <ele>473.20001220703125</ele>
        <time>2011-05-07T11:16:52.000Z</time>
        <extensions>
          <ns3:TrackPointExtension>
            <ns3:hr>102</ns3:hr>
          </ns3:TrackPointExtension>
        </extensions>
      </trkpt>
      <trkpt lat="46.08370657078921794891357421875" lon="6.515465565025806427001953125">
        <ele>474</ele>
        <time>2011-05-07T11:17:00.000Z</time>
        <extensions>
          <ns3:TrackPointExtension>
            <ns3:hr>106</ns3:hr>
          </ns3:TrackPointExtension>
        </extensions>
      </trkpt>
      <trkpt lat="46.0834734700620174407958984375" lon="6.5157473646104335784912109375">
        <ele>474.600006103515625</ele>
        <time>2011-05-07T11:17:08.000Z</time>
        <extensions>
          <ns3:TrackPointExtension>
            <ns3:hr>111</ns3:hr>
          </ns3:TrackPointExtension>
        </extensions>
      </trkpt>
      <trkpt lat="46.0831633396446704864501953125" lon="6.516114659607410430908203125">
        <ele>474.600006103515625</ele>
        <time>2011-05-07T11:17:17.000Z</time>
        <extensions>
          <ns3:TrackPointExtension>
            <ns3:hr>112</ns3:hr>
          </ns3:TrackPointExtension>
        </extensions>
      </trkpt>
      <trkpt lat="46.08274885453283786773681640625" lon="6.51663995347917079925537109375">
        <ele>475</ele>
        <time>2011-05-07T11:17:28.000Z</time>
        <extensions>
          <ns3:TrackPointExtension>
            <ns3:hr>115</ns3:hr>
          </ns3:TrackPointExtension>
        </extensions>
      </trkpt>
      <trkpt lat="46.08238273300230503082275390625" lon="6.51710766367614269256591796875">
        <ele>474</ele>
        <time>2011-05-07T11:17:37.000Z</time>
        <extensions>
          <ns3:TrackPointExtension>
            <ns3:hr>114</ns3:hr>
          </ns3:TrackPointExtension>
        </extensions>
      </trkpt>
      <trkpt lat="46.08198794536292552947998046875" lon="6.5176118351519107818603515625">
        <ele>474</ele>
        <time>2011-05-07T11:17:46.000Z</time>
        <extensions>
          <ns3:TrackPointExtension>
            <ns3:hr>113</ns3:hr>
          </ns3:TrackPointExtension>
        </extensions>
      </trkpt>
      <trkpt lat="46.08153976500034332275390625" lon="6.51819638907909393310546875">
        <ele>472.600006103515625</ele>
        <time>2011-05-07T11:17:56.000Z</time>
        <extensions>
          <ns3:TrackPointExtension>
            <ns3:hr>113</ns3:hr>
          </ns3:TrackPointExtension>
        </extensions>
      </trkpt>
      <trkpt lat="46.08114489354193210601806640625" lon="6.5187497623264789581298828125">
        <ele>472.20001220703125</ele>
        <time>2011-05-07T11:18:05.000Z</time>
        <extensions>
          <ns3:TrackPointExtension>
            <ns3:hr>113</ns3:hr>
          </ns3:TrackPointExtension>
        </extensions>
      </trkpt>
      <trkpt lat="46.08089863322675228118896484375" lon="6.5191346593201160430908203125">
        <ele>472.600006103515625</ele>
        <time>2011-05-07T11:18:11.000Z</time>
        <extensions>
          <ns3:TrackPointExtension>
            <ns3:hr>111</ns3:hr>
          </ns3:TrackPointExtension>
        </extensions>
      </trkpt>
      <trkpt lat="46.080643571913242340087890625" lon="6.5194598771631717681884765625">
        <ele>472.600006103515625</ele>
        <time>2011-05-07T11:18:17.000Z</time>
        <extensions>
          <ns3:TrackPointExtension>
            <ns3:hr>110</ns3:hr>
          </ns3:TrackPointExtension>
        </extensions>
      </trkpt>
      <trkpt lat="46.08042924664914608001708984375" lon="6.5197111666202545166015625">
        <ele>472.600006103515625</ele>
        <time>2011-05-07T11:18:22.000Z</time>
        <extensions>
          <ns3:TrackPointExtension>
            <ns3:hr>109</ns3:hr>
          </ns3:TrackPointExtension>
        </extensions>
      </trkpt>
      <trkpt lat="46.080019287765026092529296875" lon="6.520110480487346649169921875">
        <ele>472.600006103515625</ele>
        <time>2011-05-07T11:18:31.000Z</time>
        <extensions>
          <ns3:TrackPointExtension>
            <ns3:hr>111</ns3:hr>
          </ns3:TrackPointExtension>
        </extensions>
      </trkpt>
      <trkpt lat="46.07969717122614383697509765625" lon="6.5202752687036991119384765625">
        <ele>473.20001220703125</ele>
        <time>2011-05-07T11:18:37.000Z</time>
        <extensions>
          <ns3:TrackPointExtension>
            <ns3:hr>114</ns3:hr>
          </ns3:TrackPointExtension>
        </extensions>
      </trkpt>
      <trkpt lat="46.0796419344842433929443359375" lon="6.520301587879657745361328125">
        <ele>473.20001220703125</ele>
        <time>2011-05-07T11:18:38.000Z</time>
        <extensions>
          <ns3:TrackPointExtension>
            <ns3:hr>113</ns3:hr>
          </ns3:TrackPointExtension>
        </extensions>
      </trkpt>
      <trkpt lat="46.07923415489494800567626953125" lon="6.52051993645727634429931640625">
        <ele>471.600006103515625</ele>
        <time>2011-05-07T11:18:46.000Z</time>
        <extensions>
          <ns3:TrackPointExtension>
            <ns3:hr>113</ns3:hr>
          </ns3:TrackPointExtension>
        </extensions>
      </trkpt>
      <trkpt lat="46.07893575914204120635986328125" lon="6.5207302384078502655029296875">
        <ele>471.600006103515625</ele>
        <time>2011-05-07T11:18:52.000Z</time>
        <extensions>
          <ns3:TrackPointExtension>
            <ns3:hr>114</ns3:hr>
          </ns3:TrackPointExtension>
        </extensions>
      </trkpt>
      <trkpt lat="46.07850107364356517791748046875" lon="6.52108655311167240142822265625">
        <ele>472.20001220703125</ele>
        <time>2011-05-07T11:19:01.000Z</time>
        <extensions>
          <ns3:TrackPointExtension>
            <ns3:hr>114</ns3:hr>
          </ns3:TrackPointExtension>
        </extensions>
      </trkpt>
      <trkpt lat="46.07831365428864955902099609375" lon="6.52138025499880313873291015625">
        <ele>472.20001220703125</ele>
        <time>2011-05-07T11:19:06.000Z</time>
        <extensions>
          <ns3:TrackPointExtension>
            <ns3:hr>114</ns3:hr>
          </ns3:TrackPointExtension>
        </extensions>
      </trkpt>
      <trkpt lat="46.07813763432204723358154296875" lon="6.52191217057406902313232421875">
        <ele>472.600006103515625</ele>
        <time>2011-05-07T11:19:13.000Z</time>
        <extensions>
          <ns3:TrackPointExtension>
            <ns3:hr>115</ns3:hr>
          </ns3:TrackPointExtension>
        </extensions>
      </trkpt>
      <trkpt lat="46.0779910348355770111083984375" lon="6.5225085429847240447998046875">
        <ele>472.600006103515625</ele>
        <time>2011-05-07T11:19:21.000Z</time>
        <extensions>
          <ns3:TrackPointExtension>
            <ns3:hr>116</ns3:hr>
          </ns3:TrackPointExtension>
        </extensions>
      </trkpt>
      <trkpt lat="46.07791886664927005767822265625" lon="6.52322209440171718597412109375">
        <ele>472.20001220703125</ele>
        <time>2011-05-07T11:19:30.000Z</time>
        <extensions>
          <ns3:TrackPointExtension>
            <ns3:hr>118</ns3:hr>
          </ns3:TrackPointExtension>
        </extensions>
      </trkpt>
      <trkpt lat="46.07784879393875598907470703125" lon="6.5240209735929965972900390625">
        <ele>472.20001220703125</ele>
        <time>2011-05-07T11:19:40.000Z</time>
        <extensions>
          <ns3:TrackPointExtension>
            <ns3:hr>118</ns3:hr>
          </ns3:TrackPointExtension>
        </extensions>
      </trkpt>
      <trkpt lat="46.07781057246029376983642578125" lon="6.5246063657104969024658203125">
        <ele>472.20001220703125</ele>
        <time>2011-05-07T11:19:48.000Z</time>
        <extensions>
          <ns3:TrackPointExtension>
            <ns3:hr>117</ns3:hr>
          </ns3:TrackPointExtension>
        </extensions>
      </trkpt>
      <trkpt lat="46.07780755497515201568603515625" lon="6.52479453943669795989990234375">
        <ele>472.20001220703125</ele>
        <time>2011-05-07T11:19:52.000Z</time>
        <extensions>
          <ns3:TrackPointExtension>
            <ns3:hr>116</ns3:hr>
          </ns3:TrackPointExtension>
        </extensions>
      </trkpt>
      <trkpt lat="46.0778094828128814697265625" lon="6.5248058550059795379638671875">
        <ele>472.20001220703125</ele>
        <time>2011-05-07T11:19:54.000Z</time>
        <extensions>
          <ns3:TrackPointExtension>
            <ns3:hr>115</ns3:hr>
          </ns3:TrackPointExtension>
        </extensions>
      </trkpt>
      <trkpt lat="46.0778200440108776092529296875" lon="6.52480895631015300750732421875">
        <ele>472.600006103515625</ele>
        <time>2011-05-07T11:20:04.000Z</time>
        <extensions>
          <ns3:TrackPointExtension>
            <ns3:hr>115</ns3:hr>
          </ns3:TrackPointExtension>
        </extensions>
      </trkpt>
      <trkpt lat="46.07783705927431583404541015625" lon="6.52492605149745941162109375">
        <ele>471.600006103515625</ele>
        <time>2011-05-07T11:20:07.000Z</time>
        <extensions>
          <ns3:TrackPointExtension>
            <ns3:hr>112</ns3:hr>
          </ns3:TrackPointExtension>
        </extensions>
      </trkpt>
      <trkpt lat="46.077886261045932769775390625" lon="6.525203995406627655029296875">
        <ele>472.600006103515625</ele>
        <time>2011-05-07T11:20:12.000Z</time>
        <extensions>
          <ns3:TrackPointExtension>
            <ns3:hr>114</ns3:hr>
          </ns3:TrackPointExtension>
        </extensions>
      </trkpt>
      <trkpt lat="46.077893637120723724365234375" lon="6.52555226348340511322021484375">
        <ele>472.600006103515625</ele>
        <time>2011-05-07T11:20:17.000Z</time>
        <extensions>
          <ns3:TrackPointExtension>
            <ns3:hr>121</ns3:hr>
          </ns3:TrackPointExtension>
        </extensions>
      </trkpt>
      <trkpt lat="46.07790629379451274871826171875" lon="6.5260879509150981903076171875">
        <ele>472.20001220703125</ele>
        <time>2011-05-07T11:20:25.000Z</time>
        <extensions>
          <ns3:TrackPointExtension>
            <ns3:hr>120</ns3:hr>
          </ns3:TrackPointExtension>
        </extensions>
      </trkpt>
      <trkpt lat="46.077928841114044189453125" lon="6.52662196196615695953369140625">
        <ele>472.600006103515625</ele>
        <time>2011-05-07T11:20:33.000Z</time>
        <extensions>
          <ns3:TrackPointExtension>
            <ns3:hr>120</ns3:hr>
          </ns3:TrackPointExtension>
        </extensions>
      </trkpt>
      <trkpt lat="46.0779340378940105438232421875" lon="6.52676378376781940460205078125">
        <ele>472.600006103515625</ele>
        <time>2011-05-07T11:20:35.000Z</time>
        <extensions>
          <ns3:TrackPointExtension>
            <ns3:hr>119</ns3:hr>
          </ns3:TrackPointExtension>
        </extensions>
      </trkpt>
      <trkpt lat="46.07789506204426288604736328125" lon="6.52703837491571903228759765625">
        <ele>472.600006103515625</ele>
        <time>2011-05-07T11:20:39.000Z</time>
        <extensions>
          <ns3:TrackPointExtension>
            <ns3:hr>118</ns3:hr>
          </ns3:TrackPointExtension>
        </extensions>
      </trkpt>
      <trkpt lat="46.07780076563358306884765625" lon="6.527254879474639892578125">
        <ele>472.20001220703125</ele>
        <time>2011-05-07T11:20:43.000Z</time>
        <extensions>
          <ns3:TrackPointExtension>
            <ns3:hr>116</ns3:hr>
          </ns3:TrackPointExtension>
        </extensions>
      </trkpt>
      <trkpt lat="46.0776272602379322052001953125" lon="6.52729653753340244293212890625">
        <ele>473.20001220703125</ele>
        <time>2011-05-07T11:20:47.000Z</time>
        <extensions>
          <ns3:TrackPointExtension>
            <ns3:hr>113</ns3:hr>
          </ns3:TrackPointExtension>
        </extensions>
      </trkpt>
      <trkpt lat="46.07760387472808361053466796875" lon="6.527424193918704986572265625">
        <ele>473.20001220703125</ele>
        <time>2011-05-07T11:20:50.000Z</time>
        <extensions>
          <ns3:TrackPointExtension>
            <ns3:hr>111</ns3:hr>
          </ns3:TrackPointExtension>
        </extensions>
      </trkpt>
      <trkpt lat="46.07764184474945068359375" lon="6.52758839540183544158935546875">
        <ele>472.20001220703125</ele>
        <time>2011-05-07T11:20:53.000Z</time>
        <extensions>
          <ns3:TrackPointExtension>
            <ns3:hr>112</ns3:hr>
          </ns3:TrackPointExtension>
        </extensions>
      </trkpt>
      <trkpt lat="46.077706553041934967041015625" lon="6.52794194407761096954345703125">
        <ele>472.20001220703125</ele>
        <time>2011-05-07T11:20:59.000Z</time>
        <extensions>
          <ns3:TrackPointExtension>
            <ns3:hr>106</ns3:hr>
          </ns3:TrackPointExtension>
        </extensions>
      </trkpt>
      <trkpt lat="46.0777754522860050201416015625" lon="6.52829515747725963592529296875">
        <ele>472.600006103515625</ele>
        <time>2011-05-07T11:21:05.000Z</time>
        <extensions>
          <ns3:TrackPointExtension>
            <ns3:hr>106</ns3:hr>
          </ns3:TrackPointExtension>
        </extensions>
      </trkpt>
      <trkpt lat="46.07782096602022647857666015625" lon="6.52885003946721553802490234375">
        <ele>472.600006103515625</ele>
        <time>2011-05-07T11:21:14.000Z</time>
        <extensions>
          <ns3:TrackPointExtension>
            <ns3:hr>110</ns3:hr>
          </ns3:TrackPointExtension>
        </extensions>
      </trkpt>
      <trkpt lat="46.07782297767698764801025390625" lon="6.5289136581122875213623046875">
        <ele>472.600006103515625</ele>
        <time>2011-05-07T11:21:15.000Z</time>
        <extensions>
          <ns3:TrackPointExtension>
            <ns3:hr>110</ns3:hr>
          </ns3:TrackPointExtension>
        </extensions>
      </trkpt>
      <trkpt lat="46.07786036096513271331787109375" lon="6.52916394174098968505859375">
        <ele>472.20001220703125</ele>
        <time>2011-05-07T11:21:19.000Z</time>
        <extensions>
          <ns3:TrackPointExtension>
            <ns3:hr>108</ns3:hr>
          </ns3:TrackPointExtension>
        </extensions>
      </trkpt>
      <trkpt lat="46.07794367708265781402587890625" lon="6.5295171551406383514404296875">
        <ele>473.20001220703125</ele>
        <time>2011-05-07T11:21:25.000Z</time>
        <extensions>
          <ns3:TrackPointExtension>
            <ns3:hr>108</ns3:hr>
          </ns3:TrackPointExtension>
        </extensions>
      </trkpt>
      <trkpt lat="46.0779980756342411041259765625" lon="6.5298661775887012481689453125">
        <ele>473.20001220703125</ele>
        <time>2011-05-07T11:21:32.000Z</time>
        <extensions>
          <ns3:TrackPointExtension>
            <ns3:hr>109</ns3:hr>
          </ns3:TrackPointExtension>
        </extensions>
      </trkpt>
      <trkpt lat="46.0780168510973453521728515625" lon="6.5299451351165771484375">
        <ele>473.600006103515625</ele>
        <time>2011-05-07T11:21:34.000Z</time>
        <extensions>
          <ns3:TrackPointExtension>
            <ns3:hr>109</ns3:hr>
          </ns3:TrackPointExtension>
        </extensions>
      </trkpt>
      <trkpt lat="46.0779435932636260986328125" lon="6.53005099855363368988037109375">
        <ele>474</ele>
        <time>2011-05-07T11:21:38.000Z</time>
        <extensions>
          <ns3:TrackPointExtension>
            <ns3:hr>109</ns3:hr>
          </ns3:TrackPointExtension>
        </extensions>
      </trkpt>
      <trkpt lat="46.077913083136081695556640625" lon="6.53004647232592105865478515625">
        <ele>474</ele>
        <time>2011-05-07T11:21:39.000Z</time>
        <extensions>
          <ns3:TrackPointExtension>
            <ns3:hr>109</ns3:hr>
          </ns3:TrackPointExtension>
        </extensions>
      </trkpt>
      <trkpt lat="46.07765735127031803131103515625" lon="6.53005175292491912841796875">
        <ele>474.600006103515625</ele>
        <time>2011-05-07T11:21:46.000Z</time>
        <extensions>
          <ns3:TrackPointExtension>
            <ns3:hr>113</ns3:hr>
          </ns3:TrackPointExtension>
        </extensions>
      </trkpt>
      <trkpt lat="46.0775933973491191864013671875" lon="6.53026364743709564208984375">
        <ele>474</ele>
        <time>2011-05-07T11:21:50.000Z</time>
        <extensions>
          <ns3:TrackPointExtension>
            <ns3:hr>113</ns3:hr>
          </ns3:TrackPointExtension>
        </extensions>
      </trkpt>
      <trkpt lat="46.07757135294377803802490234375" lon="6.53101525269448757171630859375">
        <ele>474</ele>
        <time>2011-05-07T11:22:02.000Z</time>
        <extensions>
          <ns3:TrackPointExtension>
            <ns3:hr>113</ns3:hr>
          </ns3:TrackPointExtension>
        </extensions>
      </trkpt>
      <trkpt lat="46.07753145508468151092529296875" lon="6.531413979828357696533203125">
        <ele>474</ele>
        <time>2011-05-07T11:22:09.000Z</time>
        <extensions>
          <ns3:TrackPointExtension>
            <ns3:hr>112</ns3:hr>
          </ns3:TrackPointExtension>
        </extensions>
      </trkpt>
      <trkpt lat="46.07760756276547908782958984375" lon="6.53151623904705047607421875">
        <ele>474</ele>
        <time>2011-05-07T11:22:13.000Z</time>
        <extensions>
          <ns3:TrackPointExtension>
            <ns3:hr>111</ns3:hr>
          </ns3:TrackPointExtension>
        </extensions>
      </trkpt>
      <trkpt lat="46.077674366533756256103515625" lon="6.53152185492217540740966796875">
        <ele>473.600006103515625</ele>
        <time>2011-05-07T11:22:15.000Z</time>
        <extensions>
          <ns3:TrackPointExtension>
            <ns3:hr>112</ns3:hr>
          </ns3:TrackPointExtension>
        </extensions>
      </trkpt>
      <trkpt lat="46.07800603844225406646728515625" lon="6.531594693660736083984375">
        <ele>473.600006103515625</ele>
        <time>2011-05-07T11:22:24.000Z</time>
        <extensions>
          <ns3:TrackPointExtension>
            <ns3:hr>113</ns3:hr>
          </ns3:TrackPointExtension>
        </extensions>
      </trkpt>
      <trkpt lat="46.0783323459327220916748046875" lon="6.5316860564053058624267578125">
        <ele>473.600006103515625</ele>
        <time>2011-05-07T11:22:32.000Z</time>
        <extensions>
          <ns3:TrackPointExtension>
            <ns3:hr>113</ns3:hr>
          </ns3:TrackPointExtension>
        </extensions>
      </trkpt>
      <trkpt lat="46.0783628560602664947509765625" lon="6.53171396814286708831787109375">
        <ele>474</ele>
        <time>2011-05-07T11:22:33.000Z</time>
        <extensions>
          <ns3:TrackPointExtension>
            <ns3:hr>112</ns3:hr>
          </ns3:TrackPointExtension>
        </extensions>
      </trkpt>
      <trkpt lat="46.07843267731368541717529296875" lon="6.53198537416756153106689453125">
        <ele>473.20001220703125</ele>
        <time>2011-05-07T11:22:38.000Z</time>
        <extensions>
          <ns3:TrackPointExtension>
            <ns3:hr>113</ns3:hr>
          </ns3:TrackPointExtension>
        </extensions>
      </trkpt>
      <trkpt lat="46.078479699790477752685546875" lon="6.53220967389643192291259765625">
        <ele>473.20001220703125</ele>
        <time>2011-05-07T11:22:41.000Z</time>
        <extensions>
          <ns3:TrackPointExtension>
            <ns3:hr>112</ns3:hr>
          </ns3:TrackPointExtension>
        </extensions>
      </trkpt>
      <trkpt lat="46.07860266231000423431396484375" lon="6.53274695388972759246826171875">
        <ele>474</ele>
        <time>2011-05-07T11:22:49.000Z</time>
        <extensions>
          <ns3:TrackPointExtension>
            <ns3:hr>112</ns3:hr>
          </ns3:TrackPointExtension>
        </extensions>
      </trkpt>
      <trkpt lat="46.078679859638214111328125" lon="6.53313604183495044708251953125">
        <ele>473.20001220703125</ele>
        <time>2011-05-07T11:22:55.000Z</time>
        <extensions>
          <ns3:TrackPointExtension>
            <ns3:hr>115</ns3:hr>
          </ns3:TrackPointExtension>
        </extensions>
      </trkpt>
      <trkpt lat="46.07870735228061676025390625" lon="6.53333536349236965179443359375">
        <ele>473.20001220703125</ele>
        <time>2011-05-07T11:22:58.000Z</time>
        <extensions>
          <ns3:TrackPointExtension>
            <ns3:hr>114</ns3:hr>
          </ns3:TrackPointExtension>
        </extensions>
      </trkpt>
      <trkpt lat="46.0787571407854557037353515625" lon="6.53363325633108615875244140625">
        <ele>473.600006103515625</ele>
        <time>2011-05-07T11:23:03.000Z</time>
        <extensions>
          <ns3:TrackPointExtension>
            <ns3:hr>116</ns3:hr>
          </ns3:TrackPointExtension>
        </extensions>
      </trkpt>
      <trkpt lat="46.078731156885623931884765625" lon="6.5340797603130340576171875">
        <ele>473.600006103515625</ele>
        <time>2011-05-07T11:23:10.000Z</time>
        <extensions>
          <ns3:TrackPointExtension>
            <ns3:hr>113</ns3:hr>
          </ns3:TrackPointExtension>
        </extensions>
      </trkpt>
      <trkpt lat="46.0787316597998142242431640625" lon="6.534344293177127838134765625">
        <ele>474.600006103515625</ele>
        <time>2011-05-07T11:23:15.000Z</time>
        <extensions>
          <ns3:TrackPointExtension>
            <ns3:hr>113</ns3:hr>
          </ns3:TrackPointExtension>
        </extensions>
      </trkpt>
      <trkpt lat="46.07883735559880733489990234375" lon="6.53470949269831180572509765625">
        <ele>474</ele>
        <time>2011-05-07T11:23:21.000Z</time>
        <extensions>
          <ns3:TrackPointExtension>
            <ns3:hr>113</ns3:hr>
          </ns3:TrackPointExtension>
        </extensions>
      </trkpt>
      <trkpt lat="46.07896626926958560943603515625" lon="6.53517016209661960601806640625">
        <ele>473.600006103515625</ele>
        <time>2011-05-07T11:23:28.000Z</time>
        <extensions>
          <ns3:TrackPointExtension>
            <ns3:hr>114</ns3:hr>
          </ns3:TrackPointExtension>
        </extensions>
      </trkpt>
      <trkpt lat="46.07900817878544330596923828125" lon="6.53536646626889705657958984375">
        <ele>474.600006103515625</ele>
        <time>2011-05-07T11:23:31.000Z</time>
        <extensions>
          <ns3:TrackPointExtension>
            <ns3:hr>114</ns3:hr>
          </ns3:TrackPointExtension>
        </extensions>
      </trkpt>
      <trkpt lat="46.0789958573877811431884765625" lon="6.5355608426034450531005859375">
        <ele>474</ele>
        <time>2011-05-07T11:23:34.000Z</time>
        <extensions>
          <ns3:TrackPointExtension>
            <ns3:hr>114</ns3:hr>
          </ns3:TrackPointExtension>
        </extensions>
      </trkpt>
      <trkpt lat="46.07898496091365814208984375" lon="6.53603685088455677032470703125">
        <ele>474</ele>
        <time>2011-05-07T11:23:41.000Z</time>
        <extensions>
          <ns3:TrackPointExtension>
            <ns3:hr>117</ns3:hr>
          </ns3:TrackPointExtension>
        </extensions>
      </trkpt>
      <trkpt lat="46.07897615991532802581787109375" lon="6.53610943816602230072021484375">
        <ele>474</ele>
        <time>2011-05-07T11:23:42.000Z</time>
        <extensions>
          <ns3:TrackPointExtension>
            <ns3:hr>117</ns3:hr>
          </ns3:TrackPointExtension>
        </extensions>
      </trkpt>
      <trkpt lat="46.07901186682283878326416015625" lon="6.53641336597502231597900390625">
        <ele>474</ele>
        <time>2011-05-07T11:23:46.000Z</time>
        <extensions>
          <ns3:TrackPointExtension>
            <ns3:hr>118</ns3:hr>
          </ns3:TrackPointExtension>
        </extensions>
      </trkpt>
      <trkpt lat="46.07905679382383823394775390625" lon="6.53661436401307582855224609375">
        <ele>474.600006103515625</ele>
        <time>2011-05-07T11:23:49.000Z</time>
        <extensions>
          <ns3:TrackPointExtension>
            <ns3:hr>117</ns3:hr>
          </ns3:TrackPointExtension>
        </extensions>
      </trkpt>
      <trkpt lat="46.07909786514937877655029296875" lon="6.53694259934127330780029296875">
        <ele>474.600006103515625</ele>
        <time>2011-05-07T11:23:54.000Z</time>
        <extensions>
          <ns3:TrackPointExtension>
            <ns3:hr>117</ns3:hr>
          </ns3:TrackPointExtension>
        </extensions>
      </trkpt>
      <trkpt lat="46.07915486209094524383544921875" lon="6.5372938849031925201416015625">
        <ele>475.600006103515625</ele>
        <time>2011-05-07T11:23:59.000Z</time>
        <extensions>
          <ns3:TrackPointExtension>
            <ns3:hr>118</ns3:hr>
          </ns3:TrackPointExtension>
        </extensions>
      </trkpt>
      <trkpt lat="46.07916475273668766021728515625" lon="6.537370495498180389404296875">
        <ele>475.600006103515625</ele>
        <time>2011-05-07T11:24:00.000Z</time>
        <extensions>
          <ns3:TrackPointExtension>
            <ns3:hr>118</ns3:hr>
          </ns3:TrackPointExtension>
        </extensions>
      </trkpt>
      <trkpt lat="46.079145558178424835205078125" lon="6.53762036003172397613525390625">
        <ele>475</ele>
        <time>2011-05-07T11:24:04.000Z</time>
        <extensions>
          <ns3:TrackPointExtension>
            <ns3:hr>120</ns3:hr>
          </ns3:TrackPointExtension>
        </extensions>
      </trkpt>
      <trkpt lat="46.07911295257508754730224609375" lon="6.5381474979221820831298828125">
        <ele>475</ele>
        <time>2011-05-07T11:24:11.000Z</time>
        <extensions>
          <ns3:TrackPointExtension>
            <ns3:hr>121</ns3:hr>
          </ns3:TrackPointExtension>
        </extensions>
      </trkpt>
      <trkpt lat="46.07899175025522708892822265625" lon="6.5386567823588848114013671875">
        <ele>474</ele>
        <time>2011-05-07T11:24:18.000Z</time>
        <extensions>
          <ns3:TrackPointExtension>
            <ns3:hr>123</ns3:hr>
          </ns3:TrackPointExtension>
        </extensions>
      </trkpt>
      <trkpt lat="46.07899057678878307342529296875" lon="6.5389816649258136749267578125">
        <ele>474.600006103515625</ele>
        <time>2011-05-07T11:24:22.000Z</time>
        <extensions>
          <ns3:TrackPointExtension>
            <ns3:hr>125</ns3:hr>
          </ns3:TrackPointExtension>
        </extensions>
      </trkpt>
      <trkpt lat="46.0789351724088191986083984375" lon="6.53937033377587795257568359375">
        <ele>474</ele>
        <time>2011-05-07T11:24:27.000Z</time>
        <extensions>
          <ns3:TrackPointExtension>
            <ns3:hr>129</ns3:hr>
          </ns3:TrackPointExtension>
        </extensions>
      </trkpt>
      <trkpt lat="46.07889468781650066375732421875" lon="6.53951215557754039764404296875">
        <ele>474</ele>
        <time>2011-05-07T11:24:29.000Z</time>
        <extensions>
          <ns3:TrackPointExtension>
            <ns3:hr>128</ns3:hr>
          </ns3:TrackPointExtension>
        </extensions>
      </trkpt>
      <trkpt lat="46.07878354378044605255126953125" lon="6.53979957103729248046875">
        <ele>475</ele>
        <time>2011-05-07T11:24:34.000Z</time>
        <extensions>
          <ns3:TrackPointExtension>
            <ns3:hr>126</ns3:hr>
          </ns3:TrackPointExtension>
        </extensions>
      </trkpt>
      <trkpt lat="46.078790836036205291748046875" lon="6.53998238034546375274658203125">
        <ele>475.600006103515625</ele>
        <time>2011-05-07T11:24:37.000Z</time>
        <extensions>
          <ns3:TrackPointExtension>
            <ns3:hr>126</ns3:hr>
          </ns3:TrackPointExtension>
        </extensions>
      </trkpt>
      <trkpt lat="46.07876208610832691192626953125" lon="6.540158651769161224365234375">
        <ele>475</ele>
        <time>2011-05-07T11:24:40.000Z</time>
        <extensions>
          <ns3:TrackPointExtension>
            <ns3:hr>126</ns3:hr>
          </ns3:TrackPointExtension>
        </extensions>
      </trkpt>
      <trkpt lat="46.0786897502839565277099609375" lon="6.54049568809568881988525390625">
        <ele>476</ele>
        <time>2011-05-07T11:24:45.000Z</time>
        <extensions>
          <ns3:TrackPointExtension>
            <ns3:hr>125</ns3:hr>
          </ns3:TrackPointExtension>
        </extensions>
      </trkpt>
      <trkpt lat="46.07852487824857234954833984375" lon="6.54081143438816070556640625">
        <ele>476</ele>
        <time>2011-05-07T11:24:51.000Z</time>
        <extensions>
          <ns3:TrackPointExtension>
            <ns3:hr>125</ns3:hr>
          </ns3:TrackPointExtension>
        </extensions>
      </trkpt>
      <trkpt lat="46.0784332640469074249267578125" lon="6.5408910624682903289794921875">
        <ele>477</ele>
        <time>2011-05-07T11:24:54.000Z</time>
        <extensions>
          <ns3:TrackPointExtension>
            <ns3:hr>124</ns3:hr>
          </ns3:TrackPointExtension>
        </extensions>
      </trkpt>
      <trkpt lat="46.0783467628061771392822265625" lon="6.54109935276210308074951171875">
        <ele>477.399993896484375</ele>
        <time>2011-05-07T11:24:59.000Z</time>


Partager le fichier


Télécharger activity_87047401.gpx


Télécharger activity_87047401.gpx